Phoenix (PHX/KPHX)

Information

Location
Phoenix, AZ
Local Time
20:33 / 8:33 pm
GMT Time
03:33 / 3:33 am
Gates
No FAA reported delays
METAR KPHX 260251Z 25012KT 10SM BKN210 BKN250 33/M05 A2963 RMK AO2 SLP014 T03331050 53010
TAF KPHX 260306Z 2603/2624 26014KT P6SM BKN200 FM260900 12009KT P6SM FEW200 FM262100 24012KT P6SM SKC